Time;durP1;ratioP1;P1;durP2;ratioP2;P2;SDS_P1;SDS_P2;PMS_P1;PMS_P2;Temp;Humidity;BMP_temperature;BMP_pressure;BME280_temperature;BME280_humidity;BME280_pressure;Samples;Min_cycle;Max_cycle;Signal;HPM_P1;HPM_P2
2021/04/30 00:00:15;;;;;;;0.60;0.60;;;6.40;99.90;;;;;;5072357;28;20672;-81
2021/04/30 00:02:41;;;;;;;0.60;0.60;;;6.40;99.90;;;;;;5072805;28;20249;-81
2021/04/30 00:05:10;;;;;;;0.50;0.50;;;6.40;99.90;;;;;;5072343;28;20235;-82
2021/04/30 00:07:37;;;;;;;0.57;0.57;;;6.40;99.90;;;;;;5072315;28;20297;-81
2021/04/30 00:10:03;;;;;;;0.50;0.50;;;6.40;99.90;;;;;;5072748;28;20203;-82
2021/04/30 00:12:30;;;;;;;0.50;0.50;;;6.40;99.90;;;;;;5072594;28;20223;-81
2021/04/30 00:14:57;;;;;;;0.60;0.60;;;6.40;99.90;;;;;;5072272;28;20233;-81
2021/04/30 00:17:26;;;;;;;0.60;0.60;;;6.40;99.90;;;;;;5072480;28;20257;-81
2021/04/30 00:19:52;;;;;;;0.50;0.50;;;6.60;99.90;;;;;;5072551;28;20222;-81
2021/04/30 00:22:18;;;;;;;0.60;0.60;;;6.30;99.90;;;;;;5072100;28;20208;-82
2021/04/30 00:24:44;;;;;;;0.57;0.57;;;6.40;99.90;;;;;;5072294;28;20226;-82
2021/04/30 00:27:10;;;;;;;0.60;0.60;;;6.40;99.90;;;;;;5072361;28;20253;-82
2021/04/30 00:29:37;;;;;;;0.50;0.50;;;6.40;99.90;;;;;;5072329;28;20204;-82
2021/04/30 00:32:04;;;;;;;0.50;0.50;;;6.40;99.90;;;;;;5071964;28;20418;-81
2021/04/30 00:34:30;;;;;;;0.50;0.50;;;6.10;99.90;;;;;;5072239;28;20208;-81
2021/04/30 00:36:56;;;;;;;0.57;0.57;;;6.40;99.90;;;;;;5072064;28;20212;-82
2021/04/30 00:39:22;;;;;;;0.55;0.55;;;6.40;99.90;;;;;;5071985;28;20214;-81
2021/04/30 00:41:48;;;;;;;0.55;0.55;;;6.40;99.90;;;;;;5071793;28;20203;-82
2021/04/30 00:44:14;;;;;;;0.60;0.60;;;6.40;99.90;;;;;;5071928;28;20204;-82
2021/04/30 00:46:41;;;;;;;0.50;0.50;;;6.40;99.90;;;;;;5072208;28;20204;-82
2021/04/30 00:49:07;;;;;;;0.60;0.60;;;6.40;99.90;;;;;;5071944;28;20204;-81
2021/04/30 00:51:34;;;;;;;0.50;0.50;;;6.50;99.90;;;;;;5071722;28;20580;-81
2021/04/30 00:54:00;;;;;;;0.50;0.50;;;6.50;99.90;;;;;;5071654;28;20231;-82
2021/04/30 00:56:26;;;;;;;0.50;0.50;;;6.40;99.90;;;;;;5071736;28;20207;-81
2021/04/30 00:58:54;;;;;;;0.50;0.50;;;6.50;99.90;;;;;;5071609;28;20208;-81
2021/04/30 01:01:20;;;;;;;0.55;0.55;;;6.40;99.90;;;;;;5071490;28;20390;-81
2021/04/30 01:03:47;;;;;;;0.60;0.60;;;6.50;99.90;;;;;;5071666;28;20200;-81
2021/04/30 01:06:15;;;;;;;0.55;0.55;;;6.50;99.90;;;;;;5070781;28;20243;-81
2021/04/30 01:08:41;;;;;;;0.50;0.50;;;6.40;99.90;;;;;;5071519;28;20210;-81
2021/04/30 01:11:07;;;;;;;0.60;0.60;;;6.50;99.90;;;;;;5071451;28;20250;-81
2021/04/30 01:13:34;;;;;;;0.50;0.50;;;6.60;99.90;;;;;;5071516;28;20356;-81
2021/04/30 01:16:00;;;;;;;0.55;0.55;;;6.50;99.90;;;;;;5071001;28;20657;-81
2021/04/30 01:18:26;;;;;;;0.50;0.50;;;6.50;99.90;;;;;;5071267;28;20207;-81
2021/04/30 01:20:53;;;;;;;0.50;0.50;;;6.50;99.90;;;;;;5071543;28;20203;-81
2021/04/30 01:23:20;;;;;;;0.50;0.50;;;6.60;99.90;;;;;;5071403;28;20262;-81
2021/04/30 01:25:46;;;;;;;0.50;0.50;;;6.60;99.90;;;;;;5071142;28;20219;-81
2021/04/30 01:28:12;;;;;;;0.50;0.50;;;6.60;99.90;;;;;;5071127;28;20212;-81
2021/04/30 01:30:39;;;;;;;0.50;0.50;;;6.50;99.90;;;;;;5071211;28;20596;-81
2021/04/30 01:33:16;;;;;;;0.50;0.50;;;6.50;99.90;;;;;;5070920;28;20250;-81
2021/04/30 01:35:43;;;;;;;0.50;0.50;;;6.50;99.90;;;;;;5071209;28;20207;-81
2021/04/30 01:38:09;;;;;;;0.50;0.50;;;6.50;99.90;;;;;;5070910;28;20614;-81
2021/04/30 01:40:36;;;;;;;0.50;0.50;;;6.50;99.90;;;;;;5071047;28;20207;-81
2021/04/30 01:43:05;;;;;;;0.60;0.60;;;6.50;99.90;;;;;;5070873;28;20203;-82
2021/04/30 01:45:34;;;;;;;0.50;0.50;;;6.50;99.90;;;;;;5070599;28;20204;-81
2021/04/30 01:48:01;;;;;;;0.60;0.60;;;6.50;99.90;;;;;;5070786;28;20203;-81
2021/04/30 01:50:27;;;;;;;0.50;0.50;;;6.50;99.90;;;;;;5070278;28;20277;-81
2021/04/30 01:52:53;;;;;;;0.50;0.50;;;6.50;99.90;;;;;;5070621;28;20716;-82
2021/04/30 01:55:20;;;;;;;0.50;0.50;;;6.50;99.90;;;;;;5070576;28;20200;-81
2021/04/30 01:57:48;;;;;;;0.50;0.50;;;6.60;99.90;;;;;;5070705;28;20588;-81
2021/04/30 02:00:20;;;;;;;0.57;0.57;;;6.50;99.90;;;;;;5070153;28;20762;-80
2021/04/30 02:02:46;;;;;;;0.60;0.60;;;6.50;99.90;;;;;;5070547;28;20203;-81
2021/04/30 02:05:13;;;;;;;0.50;0.50;;;6.50;99.90;;;;;;5070083;28;20445;-80
2021/04/30 02:07:39;;;;;;;0.50;0.50;;;6.50;99.90;;;;;;5070442;28;20204;-81
2021/04/30 02:10:11;;;;;;;0.60;0.60;;;6.50;99.90;;;;;;5070563;28;20221;-81
2021/04/30 02:12:37;;;;;;;0.57;0.57;;;6.50;99.90;;;;;;5070313;28;20297;-81
2021/04/30 02:15:06;;;;;;;0.50;0.50;;;6.50;99.90;;;;;;5070178;28;20199;-81
2021/04/30 02:17:32;;;;;;;0.60;0.60;;;6.50;99.90;;;;;;5069444;28;20200;-81
2021/04/30 02:19:58;;;;;;;0.50;0.50;;;6.50;99.90;;;;;;5070197;28;20214;-81
2021/04/30 02:22:24;;;;;;;0.55;0.55;;;6.50;99.90;;;;;;5070257;28;20624;-81
2021/04/30 02:24:50;;;;;;;0.60;0.60;;;6.50;99.90;;;;;;5070133;28;20245;-81
2021/04/30 02:27:16;;;;;;;0.50;0.50;;;6.50;99.90;;;;;;5069585;28;20227;-81
2021/04/30 02:29:43;;;;;;;0.57;0.57;;;6.50;99.90;;;;;;5069924;28;20658;-81
2021/04/30 02:32:09;;;;;;;0.50;0.50;;;6.50;99.90;;;;;;5069810;28;20226;-81
2021/04/30 02:34:36;;;;;;;0.50;0.50;;;6.50;99.90;;;;;;5069631;28;20203;-81
2021/04/30 02:37:02;;;;;;;0.50;0.50;;;6.20;99.90;;;;;;5069667;28;20547;-81
2021/04/30 02:39:28;;;;;;;0.50;0.50;;;6.50;99.90;;;;;;5069698;28;20212;-81
2021/04/30 02:41:54;;;;;;;0.60;0.60;;;6.50;99.90;;;;;;5069897;28;20204;-81
2021/04/30 02:44:20;;;;;;;0.50;0.50;;;6.50;99.90;;;;;;5069402;28;20276;-80
2021/04/30 02:46:46;;;;;;;0.57;0.57;;;6.60;99.90;;;;;;5069691;28;20207;-80
2021/04/30 02:49:15;;;;;;;0.50;0.50;;;6.60;99.90;;;;;;5069511;28;20212;-80
2021/04/30 02:51:42;;;;;;;0.50;0.50;;;6.60;99.90;;;;;;5069750;28;20222;-80
2021/04/30 02:54:08;;;;;;;0.50;0.50;;;6.60;99.90;;;;;;5069230;28;20624;-80
2021/04/30 02:56:35;;;;;;;0.50;0.50;;;6.60;99.90;;;;;;5069504;28;20211;-80
2021/04/30 02:59:04;;;;;;;0.50;0.50;;;6.50;99.90;;;;;;5069639;28;20276;-81
2021/04/30 03:01:30;;;;;;;0.60;0.60;;;6.50;99.90;;;;;;5069271;28;20203;-80
2021/04/30 03:03:56;;;;;;;0.50;0.50;;;6.50;99.90;;;;;;5069421;28;20290;-81
2021/04/30 03:06:23;;;;;;;0.57;0.57;;;6.50;99.90;;;;;;5069303;28;20292;-81
2021/04/30 03:08:52;;;;;;;0.50;0.50;;;6.70;99.90;;;;;;5069198;28;20203;-80
2021/04/30 03:11:19;;;;;;;0.60;0.60;;;6.50;99.90;;;;;;5069220;28;20200;-80
2021/04/30 03:13:45;;;;;;;0.57;0.57;;;7.00;99.90;;;;;;5069434;28;20620;-80
2021/04/30 03:16:11;;;;;;;0.50;0.50;;;6.50;99.90;;;;;;5069026;28;20199;-80
2021/04/30 03:18:37;;;;;;;0.50;0.50;;;6.50;99.90;;;;;;5069229;28;20207;-80
2021/04/30 03:21:04;;;;;;;0.50;0.50;;;6.50;99.90;;;;;;5069218;28;20677;-80
2021/04/30 03:23:31;;;;;;;0.50;0.50;;;6.40;99.90;;;;;;5069130;28;20210;-80
2021/04/30 03:25:57;;;;;;;0.50;0.50;;;6.50;99.90;;;;;;5068706;28;20216;-80
2021/04/30 03:28:23;;;;;;;0.50;0.50;;;6.50;99.90;;;;;;5069002;28;20281;-80
2021/04/30 03:30:49;;;;;;;0.60;0.60;;;6.50;99.90;;;;;;5069172;28;20225;-80
2021/04/30 03:33:15;;;;;;;0.50;0.50;;;6.50;99.90;;;;;;5071020;28;20227;-85
2021/04/30 03:35:43;;;;;;;0.60;0.60;;;6.30;99.90;;;;;;5070515;28;20203;-83
2021/04/30 03:38:09;;;;;;;0.60;0.60;;;6.60;99.90;;;;;;5065393;28;20207;-83
2021/04/30 03:40:36;;;;;;;0.60;0.60;;;6.50;99.90;;;;;;5067220;28;20202;-83
2021/04/30 03:43:02;;;;;;;0.57;0.57;;;6.50;99.90;;;;;;5061486;28;20195;-82
2021/04/30 03:45:29;;;;;;;0.50;0.50;;;6.60;99.90;;;;;;5065357;28;20199;-82
2021/04/30 03:47:55;;;;;;;0.60;0.60;;;6.30;99.90;;;;;;5068707;28;20195;-83
2021/04/30 03:50:21;;;;;;;0.60;0.60;;;6.50;99.90;;;;;;5068854;28;20302;-83
2021/04/30 03:52:47;;;;;;;0.50;0.50;;;6.60;99.90;;;;;;5069262;28;20257;-83
2021/04/30 03:55:14;;;;;;;0.60;0.60;;;6.50;99.90;;;;;;5069122;28;20575;-82
2021/04/30 03:57:40;;;;;;;0.50;0.50;;;6.60;99.90;;;;;;5069159;28;20218;-83
2021/04/30 04:00:07;;;;;;;0.57;0.57;;;6.50;99.90;;;;;;5068957;28;20245;-83
2021/04/30 04:02:33;;;;;;;0.60;0.60;;;6.50;99.90;;;;;;5068987;28;20572;-82
2021/04/30 04:05:00;;;;;;;0.50;0.50;;;6.70;99.90;;;;;;5069230;28;20253;-83
2021/04/30 04:07:26;;;;;;;0.50;0.50;;;6.50;99.90;;;;;;5069057;28;20219;-83
2021/04/30 04:09:52;;;;;;;0.60;0.60;;;6.50;99.90;;;;;;5069341;28;20579;-83
2021/04/30 04:12:18;;;;;;;0.60;0.60;;;6.50;99.90;;;;;;5068605;28;20223;-83
2021/04/30 04:14:45;;;;;;;0.52;0.52;;;6.50;99.90;;;;;;5068736;28;20208;-83
2021/04/30 04:17:14;;;;;;;0.50;0.50;;;6.50;99.90;;;;;;5068967;28;20208;-82
2021/04/30 04:19:40;;;;;;;0.60;0.60;;;6.50;99.90;;;;;;5069053;28;20619;-83
2021/04/30 04:22:06;;;;;;;0.60;0.60;;;6.50;99.90;;;;;;5069096;28;20208;-82
2021/04/30 04:24:32;;;;;;;0.60;0.60;;;6.50;99.90;;;;;;5068923;28;20219;-83
2021/04/30 04:27:02;;;;;;;0.60;0.60;;;6.50;99.90;;;;;;5066898;28;20238;-82
2021/04/30 04:29:28;;;;;;;0.60;0.60;;;6.60;99.90;;;;;;5066869;28;20718;-83
2021/04/30 04:31:54;;;;;;;0.57;0.57;;;6.60;99.90;;;;;;5063663;28;20210;-83
2021/04/30 04:34:21;;;;;;;0.50;0.50;;;6.60;99.90;;;;;;5065290;28;20705;-83
2021/04/30 04:36:47;;;;;;;0.60;0.60;;;6.20;99.90;;;;;;5066714;28;20208;-83
2021/04/30 04:39:13;;;;;;;0.60;0.60;;;6.90;99.90;;;;;;5065041;28;20224;-83
2021/04/30 04:41:39;;;;;;;0.60;0.60;;;6.60;99.90;;;;;;5066917;28;20261;-83
2021/04/30 04:44:05;;;;;;;0.50;0.50;;;6.60;99.90;;;;;;5069986;28;20593;-84
2021/04/30 04:46:32;;;;;;;0.50;0.50;;;6.60;99.90;;;;;;5067299;28;20210;-84
2021/04/30 04:48:58;;;;;;;0.60;0.60;;;6.60;99.90;;;;;;5065734;28;20203;-84
2021/04/30 04:51:25;;;;;;;0.57;0.57;;;6.60;99.90;;;;;;5067612;28;20214;-85
2021/04/30 04:53:51;;;;;;;0.60;0.60;;;6.60;99.90;;;;;;5069046;28;20277;-85
2021/04/30 04:56:17;;;;;;;0.52;0.52;;;6.70;99.90;;;;;;5068801;28;20208;-85
2021/04/30 04:58:43;;;;;;;0.50;0.50;;;6.70;99.90;;;;;;5071927;28;20203;-84
2021/04/30 05:01:09;;;;;;;0.60;0.60;;;6.70;99.90;;;;;;5067338;28;20204;-84
2021/04/30 05:03:35;;;;;;;0.57;0.57;;;6.70;99.90;;;;;;5067118;28;20211;-84
2021/04/30 05:06:04;;;;;;;0.50;0.50;;;6.10;99.90;;;;;;5070420;28;20238;-83
2021/04/30 05:08:30;;;;;;;0.50;0.50;;;6.70;99.90;;;;;;5066549;28;20215;-82
2021/04/30 05:10:56;;;;;;;0.57;0.57;;;6.70;99.90;;;;;;5067962;28;20203;-85
2021/04/30 05:13:22;;;;;;;0.55;0.55;;;6.80;99.90;;;;;;5067562;28;20231;-82
2021/04/30 05:15:48;;;;;;;0.50;0.50;;;6.80;99.90;;;;;;5066509;28;20214;-82
2021/04/30 05:18:15;;;;;;;0.50;0.50;;;6.80;99.90;;;;;;5066807;28;20199;-82
2021/04/30 05:20:41;;;;;;;0.50;0.50;;;7.00;99.90;;;;;;5066539;28;20215;-79
2021/04/30 05:23:08;;;;;;;0.50;0.50;;;7.00;99.90;;;;;;5064360;28;20525;-78
2021/04/30 05:25:34;;;;;;;0.60;0.60;;;6.80;99.90;;;;;;5071601;28;20207;-79
2021/04/30 05:28:00;;;;;;;0.50;0.50;;;6.70;99.90;;;;;;5072059;28;20276;-80
2021/04/30 05:30:26;;;;;;;0.60;0.60;;;6.90;99.90;;;;;;5072275;28;20620;-84
2021/04/30 05:32:53;;;;;;;0.57;0.57;;;6.80;99.90;;;;;;5082423;28;20224;-86
2021/04/30 05:35:19;;;;;;;0.50;0.50;;;6.90;99.90;;;;;;5074656;28;20203;-82
2021/04/30 05:37:45;;;;;;;0.50;0.50;;;6.90;99.90;;;;;;5071709;28;20207;-81
2021/04/30 05:40:13;;;;;;;0.50;0.50;;;6.70;99.90;;;;;;5071725;28;20666;-82
2021/04/30 05:42:39;;;;;;;0.50;0.50;;;6.90;99.90;;;;;;5072481;28;20195;-78
2021/04/30 05:45:06;;;;;;;0.50;0.50;;;6.90;99.90;;;;;;5071309;28;20208;-80
2021/04/30 05:47:33;;;;;;;0.60;0.60;;;6.90;99.90;;;;;;5071169;28;20230;-79
2021/04/30 05:49:59;;;;;;;0.60;0.60;;;6.80;99.90;;;;;;5075519;28;20208;-82
2021/04/30 05:52:25;;;;;;;0.60;0.60;;;6.80;99.90;;;;;;5070119;28;20207;-79
2021/04/30 05:54:51;;;;;;;0.60;0.60;;;6.90;99.90;;;;;;5071013;28;20218;-80
2021/04/30 05:57:18;;;;;;;0.50;0.50;;;6.90;99.90;;;;;;5070972;28;20661;-80
2021/04/30 05:59:44;;;;;;;0.50;0.50;;;6.80;99.90;;;;;;5070858;28;20241;-80
2021/04/30 06:02:10;;;;;;;0.55;0.55;;;6.80;99.90;;;;;;5070721;28;20382;-80
2021/04/30 06:04:36;;;;;;;0.60;0.60;;;6.70;99.90;;;;;;5070470;28;20709;-80
2021/04/30 06:07:02;;;;;;;0.60;0.60;;;6.80;99.90;;;;;;5069158;28;20616;-80
2021/04/30 06:09:32;;;;;;;0.57;0.57;;;6.70;99.90;;;;;;5071167;28;20200;-80
2021/04/30 06:11:58;;;;;;;0.55;0.55;;;6.70;99.90;;;;;;5071142;28;20203;-82
2021/04/30 06:14:30;;;;;;;0.50;0.50;;;6.80;99.90;;;;;;5070925;28;20227;-81
2021/04/30 06:16:56;;;;;;;0.55;0.55;;;6.60;99.90;;;;;;5071002;28;20200;-86
2021/04/30 06:19:22;;;;;;;0.57;0.57;;;6.80;99.90;;;;;;5070808;28;20587;-81
2021/04/30 06:21:48;;;;;;;0.50;0.50;;;6.80;99.90;;;;;;5070741;28;20208;-81
2021/04/30 06:24:14;;;;;;;0.60;0.60;;;6.80;99.90;;;;;;5066657;28;20587;-79
2021/04/30 06:26:40;;;;;;;0.50;0.50;;;6.80;99.90;;;;;;5067456;28;20582;-79
2021/04/30 06:29:08;;;;;;;0.60;0.60;;;6.80;99.90;;;;;;5066875;28;20214;-79
2021/04/30 06:31:35;;;;;;;0.57;0.57;;;6.80;99.90;;;;;;5070568;28;20657;-79
2021/04/30 06:34:02;;;;;;;0.50;0.50;;;6.80;99.90;;;;;;5070378;28;20333;-79
2021/04/30 06:36:28;;;;;;;0.60;0.60;;;6.80;99.90;;;;;;5070722;28;20231;-80
2021/04/30 06:38:57;;;;;;;0.50;0.50;;;6.80;99.90;;;;;;5070594;28;20268;-79
2021/04/30 06:41:23;;;;;;;0.60;0.60;;;6.50;99.90;;;;;;5070511;28;20208;-79
2021/04/30 06:43:50;;;;;;;0.60;0.60;;;6.80;99.90;;;;;;5035720;28;20710;-79
2021/04/30 06:46:16;;;;;;;0.50;0.50;;;6.80;99.90;;;;;;5061365;28;20302;-79
2021/04/30 06:48:43;;;;;;;0.50;0.50;;;6.90;99.90;;;;;;5068226;28;20676;-80
2021/04/30 06:51:09;;;;;;;0.50;0.50;;;6.80;99.90;;;;;;5069383;28;20211;-79
2021/04/30 06:53:35;;;;;;;0.50;0.50;;;6.90;99.90;;;;;;5069396;28;20254;-79
2021/04/30 06:56:03;;;;;;;0.50;0.50;;;6.80;99.90;;;;;;5069487;28;20211;-80
2021/04/30 06:58:29;;;;;;;0.50;0.50;;;6.80;99.90;;;;;;5068791;28;20398;-79
2021/04/30 07:00:55;;;;;;;0.60;0.60;;;7.00;99.90;;;;;;5069426;28;20239;-79
2021/04/30 07:03:21;;;;;;;0.52;0.52;;;7.10;99.90;;;;;;5068024;28;20669;-79
2021/04/30 07:05:48;;;;;;;0.50;0.50;;;7.00;99.90;;;;;;5069004;28;20236;-79
2021/04/30 07:08:18;;;;;;;0.55;0.55;;;7.20;99.90;;;;;;5069743;28;20207;-79
2021/04/30 07:10:44;;;;;;;0.55;0.55;;;7.40;99.90;;;;;;5069065;28;20207;-79
2021/04/30 07:13:11;;;;;;;0.60;0.60;;;6.80;99.90;;;;;;5068548;28;20227;-79
2021/04/30 07:15:37;;;;;;;0.50;0.50;;;7.20;99.90;;;;;;5069039;28;20211;-79
2021/04/30 07:18:06;;;;;;;0.50;0.50;;;7.30;99.90;;;;;;5069114;28;20214;-79
2021/04/30 07:20:34;;;;;;;0.50;0.50;;;7.40;99.90;;;;;;5069224;28;20669;-79
2021/04/30 07:23:01;;;;;;;0.50;0.50;;;7.30;99.90;;;;;;5069424;28;20207;-79
2021/04/30 07:25:28;;;;;;;0.60;0.60;;;7.40;99.90;;;;;;5068792;28;20211;-80
2021/04/30 07:27:54;;;;;;;0.55;0.55;;;7.30;99.90;;;;;;5067389;28;20211;-80
2021/04/30 07:30:20;;;;;;;0.60;0.60;;;7.40;99.90;;;;;;5066276;28;20206;-80
2021/04/30 07:32:46;;;;;;;0.50;0.50;;;7.50;99.90;;;;;;5067741;28;20223;-80
2021/04/30 07:35:12;;;;;;;0.60;0.60;;;7.60;99.90;;;;;;5069094;28;20208;-80
2021/04/30 07:37:39;;;;;;;0.60;0.60;;;7.60;99.90;;;;;;5068085;28;20203;-78
2021/04/30 07:40:07;;;;;;;0.60;0.60;;;7.60;99.90;;;;;;5069435;28;20203;-78
2021/04/30 07:42:33;;;;;;;0.60;0.60;;;7.60;99.90;;;;;;5068411;28;20242;-78
2021/04/30 07:45:00;;;;;;;0.60;0.60;;;7.60;99.90;;;;;;5069095;28;20203;-79
2021/04/30 07:47:26;;;;;;;0.50;0.50;;;7.60;99.90;;;;;;5068555;28;20207;-78
2021/04/30 07:49:52;;;;;;;0.50;0.50;;;7.60;99.90;;;;;;5069345;28;20215;-79
2021/04/30 07:52:18;;;;;;;0.60;0.60;;;7.50;99.90;;;;;;5068839;28;20425;-78
2021/04/30 07:54:44;;;;;;;0.50;0.50;;;7.60;99.90;;;;;;5069102;28;20224;-79
2021/04/30 07:57:11;;;;;;;0.50;0.50;;;7.60;99.90;;;;;;5068904;28;20275;-79
2021/04/30 07:59:37;;;;;;;0.60;0.60;;;7.60;99.90;;;;;;5067827;28;20204;-78
2021/04/30 08:02:04;;;;;;;0.57;0.57;;;7.70;99.90;;;;;;5069081;28;20219;-78
2021/04/30 08:04:30;;;;;;;0.60;0.60;;;7.70;99.90;;;;;;5068616;28;20231;-79
2021/04/30 08:06:57;;;;;;;0.60;0.60;;;7.90;99.90;;;;;;5068878;28;20230;-78
2021/04/30 08:09:23;;;;;;;0.50;0.50;;;7.80;99.90;;;;;;5068566;28;20600;-78
2021/04/30 08:11:50;;;;;;;0.60;0.60;;;7.70;99.90;;;;;;5068511;28;20200;-79
2021/04/30 08:14:17;;;;;;;0.60;0.60;;;7.90;99.90;;;;;;5068498;28;20227;-79
2021/04/30 08:16:43;;;;;;;0.50;0.50;;;7.80;99.90;;;;;;5070747;28;20837;-79
2021/04/30 08:19:10;;;;;;;0.50;0.50;;;7.80;99.90;;;;;;5075346;28;20203;-79
2021/04/30 08:21:36;;;;;;;0.60;0.60;;;7.80;99.90;;;;;;5073001;28;20560;-79
2021/04/30 08:24:03;;;;;;;0.60;0.60;;;7.90;99.90;;;;;;5070489;28;20196;-80
2021/04/30 08:26:29;;;;;;;0.50;0.50;;;8.00;99.90;;;;;;5070208;28;20314;-81
2021/04/30 08:28:55;;;;;;;0.60;0.60;;;8.00;99.90;;;;;;5072964;28;20212;-81
2021/04/30 08:31:23;;;;;;;0.52;0.52;;;8.20;99.90;;;;;;5073714;28;20204;-83
2021/04/30 08:33:51;;;;;;;0.60;0.60;;;8.20;99.90;;;;;;5072402;28;20548;-84
2021/04/30 08:36:18;;;;;;;0.60;0.60;;;8.10;99.90;;;;;;5072604;28;20208;-88
2021/04/30 08:38:44;;;;;;;0.60;0.60;;;8.10;99.90;;;;;;5071597;28;20207;-79
2021/04/30 08:41:11;;;;;;;0.60;0.60;;;8.30;99.90;;;;;;5072894;28;20207;-79
2021/04/30 08:43:37;;;;;;;0.50;0.50;;;8.30;99.90;;;;;;5071253;28;20200;-79
2021/04/30 08:46:04;;;;;;;0.57;0.57;;;8.20;99.90;;;;;;5070937;28;20211;-78
2021/04/30 08:48:32;;;;;;;0.60;0.60;;;8.30;99.90;;;;;;5072053;28;20204;-78
2021/04/30 08:50:59;;;;;;;0.60;0.60;;;8.30;99.90;;;;;;5068078;28;20245;-78
2021/04/30 08:53:28;;;;;;;0.60;0.60;;;8.40;99.90;;;;;;5071923;28;20238;-78
2021/04/30 08:55:54;;;;;;;0.60;0.60;;;8.50;99.90;;;;;;5072095;28;20211;-78
2021/04/30 08:58:25;;;;;;;0.57;0.57;;;8.40;99.90;;;;;;5070832;28;20200;-78
2021/04/30 09:00:52;;;;;;;0.50;0.50;;;7.90;99.90;;;;;;5071965;28;20207;-78
2021/04/30 09:03:19;;;;;;;0.60;0.60;;;8.30;99.90;;;;;;5069876;28;20645;-79
2021/04/30 09:05:50;;;;;;;0.50;0.50;;;8.40;99.90;;;;;;5068368;28;20609;-79
2021/04/30 09:08:17;;;;;;;0.60;0.60;;;8.40;99.90;;;;;;5070351;28;20221;-79
2021/04/30 09:10:48;;;;;;;0.60;0.60;;;8.30;99.90;;;;;;5070098;28;20629;-79
2021/04/30 09:13:16;;;;;;;0.60;0.60;;;8.40;99.90;;;;;;5069079;28;20223;-78
2021/04/30 09:15:44;;;;;;;0.60;0.60;;;8.40;99.90;;;;;;5070298;28;20262;-80
2021/04/30 09:18:15;;;;;;;0.60;0.60;;;8.40;99.90;;;;;;5070501;28;20291;-79
2021/04/30 09:20:41;;;;;;;0.57;0.57;;;8.40;99.90;;;;;;5070878;28;20279;-79
2021/04/30 09:23:36;;;;;;;0.60;0.60;;;8.40;99.90;;;;;;5070727;28;20204;-79
2021/04/30 09:26:04;;;;;;;0.50;0.50;;;8.40;99.90;;;;;;5070848;28;20231;-79
2021/04/30 09:28:30;;;;;;;0.60;0.60;;;8.50;99.90;;;;;;5069523;28;20204;-79
2021/04/30 09:30:57;;;;;;;0.60;0.60;;;8.50;99.90;;;;;;5071002;28;20209;-79
2021/04/30 09:33:25;;;;;;;0.60;0.60;;;8.70;99.90;;;;;;5068612;28;20235;-79
2021/04/30 09:35:52;;;;;;;0.60;0.60;;;8.60;99.90;;;;;;5070648;28;20200;-79
2021/04/30 09:38:26;;;;;;;0.60;0.60;;;8.60;99.90;;;;;;5070441;28;20207;-79
2021/04/30 09:41:07;;;;;;;0.60;0.60;;;8.70;99.90;;;;;;5069303;28;20211;-79
2021/04/30 09:43:42;;;;;;;0.60;0.60;;;8.70;99.90;;;;;;5070108;28;20200;-79
2021/04/30 09:46:24;;;;;;;0.60;0.60;;;8.60;99.90;;;;;;5070435;28;20218;-79
2021/04/30 09:49:01;;;;;;;0.60;0.60;;;8.60;99.90;;;;;;5073521;28;20204;-77
2021/04/30 09:51:44;;;;;;;0.60;0.60;;;8.70;99.90;;;;;;5070520;28;20665;-78
2021/04/30 09:54:24;;;;;;;0.57;0.57;;;8.50;99.90;;;;;;5068484;28;20598;-78
2021/04/30 09:57:04;;;;;;;0.60;0.60;;;8.70;99.90;;;;;;5068650;28;20673;-78
2021/04/30 09:59:30;;;;;;;0.60;0.60;;;8.70;99.90;;;;;;5063965;28;20290;-78
2021/04/30 10:02:10;;;;;;;0.50;0.50;;;8.80;99.90;;;;;;5068730;28;20592;-78
2021/04/30 10:04:37;;;;;;;0.50;0.50;;;9.10;99.90;;;;;;5067914;28;20330;-77
2021/04/30 10:07:04;;;;;;;0.50;0.50;;;9.00;99.90;;;;;;5070034;28;20204;-77
2021/04/30 10:09:31;;;;;;;0.60;0.60;;;9.20;99.90;;;;;;5069744;28;20207;-77
2021/04/30 10:12:00;;;;;;;0.55;0.55;;;9.30;99.90;;;;;;5069571;28;20204;-78
2021/04/30 10:14:28;;;;;;;0.60;0.60;;;9.40;99.90;;;;;;5069145;28;20697;-77
2021/04/30 10:16:55;;;;;;;0.60;0.60;;;9.50;99.90;;;;;;5069821;28;20207;-77
2021/04/30 10:19:22;;;;;;;0.60;0.60;;;9.60;99.90;;;;;;5069377;28;20203;-77
2021/04/30 10:21:50;;;;;;;0.60;0.60;;;9.70;99.90;;;;;;5069798;28;20700;-78
2021/04/30 10:24:18;;;;;;;0.60;0.60;;;9.50;99.90;;;;;;5069485;28;20196;-78
2021/04/30 10:26:45;;;;;;;0.60;0.60;;;9.70;99.90;;;;;;5069389;28;20223;-78
2021/04/30 10:29:17;;;;;;;0.60;0.60;;;9.70;99.90;;;;;;5068644;28;20199;-77
2021/04/30 10:31:44;;;;;;;0.60;0.60;;;9.70;99.90;;;;;;5069914;28;20226;-78
2021/04/30 10:34:20;;;;;;;0.60;0.60;;;9.70;99.90;;;;;;5069182;28;20227;-77
2021/04/30 10:36:50;;;;;;;0.60;0.60;;;9.70;99.90;;;;;;5069657;28;20206;-77
2021/04/30 10:39:25;;;;;;;0.50;0.50;;;9.80;99.90;;;;;;5068728;28;20222;-77
2021/04/30 10:41:51;;;;;;;0.60;0.60;;;9.90;99.90;;;;;;5069457;28;20689;-79
2021/04/30 10:44:21;;;;;;;0.60;0.60;;;10.10;99.90;;;;;;5068436;28;20257;-79
2021/04/30 10:46:49;;;;;;;0.60;0.60;;;10.30;99.90;;;;;;5069254;28;20210;-78
2021/04/30 10:49:19;;;;;;;0.60;0.60;;;10.20;99.90;;;;;;5069221;28;20225;-79
2021/04/30 10:52:18;;;;;;;0.60;0.60;;;10.00;99.90;;;;;;5069455;28;20249;-79
2021/04/30 10:54:46;;;;;;;0.60;0.60;;;10.10;99.90;;;;;;5068937;28;20293;-79
2021/04/30 10:57:13;;;;;;;0.55;0.55;;;10.10;99.90;;;;;;5069188;28;20207;-79
2021/04/30 10:59:45;;;;;;;0.50;0.50;;;10.20;99.90;;;;;;5068169;28;20225;-79
2021/04/30 11:02:12;;;;;;;0.60;0.60;;;10.30;99.90;;;;;;5068644;28;20623;-79
2021/04/30 11:04:38;;;;;;;0.60;0.60;;;10.30;99.90;;;;;;5066947;28;20705;-79
2021/04/30 11:07:08;;;;;;;0.60;0.60;;;10.30;99.90;;;;;;5069741;28;20253;-79
2021/04/30 11:09:36;;;;;;;0.60;0.60;;;10.20;99.90;;;;;;5069785;28;20241;-78
2021/04/30 11:12:20;;;;;;;0.60;0.60;;;10.20;99.90;;;;;;5069796;28;20200;-79
2021/04/30 11:15:02;;;;;;;0.60;0.60;;;10.50;99.90;;;;;;5068947;28;20697;-79
2021/04/30 11:17:46;;;;;;;0.60;0.60;;;10.80;99.90;;;;;;5069474;28;20242;-78
2021/04/30 11:20:17;;;;;;;0.50;0.50;;;10.70;99.90;;;;;;5069669;28;20237;-79
2021/04/30 11:22:43;;;;;;;0.60;0.60;;;10.40;99.90;;;;;;5069967;28;20207;-79
2021/04/30 11:25:15;;;;;;;0.50;0.50;;;10.30;99.90;;;;;;5069472;28;20245;-79
2021/04/30 11:27:53;;;;;;;0.60;0.60;;;10.30;99.90;;;;;;5068396;28;20224;-79
2021/04/30 11:30:25;;;;;;;0.60;0.60;;;10.40;99.90;;;;;;5069818;28;20199;-79
2021/04/30 11:32:53;;;;;;;0.55;0.55;;;10.50;99.90;;;;;;5069666;28;20294;-79
2021/04/30 11:35:20;;;;;;;0.60;0.60;;;10.40;99.90;;;;;;5069384;28;20199;-78
2021/04/30 11:37:50;;;;;;;0.60;0.60;;;10.30;99.90;;;;;;5069397;28;20212;-78
2021/04/30 11:40:17;;;;;;;0.50;0.50;;;10.30;99.90;;;;;;5069625;28;20616;-79
2021/04/30 11:42:44;;;;;;;0.60;0.60;;;10.40;99.90;;;;;;5068378;28;20485;-78
2021/04/30 11:45:11;;;;;;;0.60;0.60;;;10.20;99.90;;;;;;5069230;28;20284;-78
2021/04/30 11:47:40;;;;;;;0.60;0.60;;;10.20;99.90;;;;;;5069375;28;20245;-78
2021/04/30 11:50:17;;;;;;;0.60;0.60;;;10.40;99.90;;;;;;5072133;28;20253;-78
2021/04/30 11:52:44;;;;;;;0.60;0.60;;;10.50;99.90;;;;;;5073545;28;20577;-78
2021/04/30 11:55:13;;;;;;;0.57;0.57;;;10.60;99.90;;;;;;5073132;28;20286;-78
2021/04/30 11:57:41;;;;;;;0.60;0.60;;;10.60;99.90;;;;;;5072288;28;20207;-78
2021/04/30 12:00:17;;;;;;;0.60;0.60;;;10.70;99.90;;;;;;5073447;28;20245;-79
2021/04/30 12:02:44;;;;;;;0.60;0.60;;;10.80;99.90;;;;;;5073049;28;20218;-79
2021/04/30 12:05:12;;;;;;;0.60;0.60;;;11.40;99.90;;;;;;5071393;28;20245;-82
2021/04/30 12:07:38;;;;;;;0.60;0.60;;;11.70;99.90;;;;;;5072691;28;20234;-78
2021/04/30 12:10:06;;;;;;;0.60;0.60;;;12.20;99.90;;;;;;5072654;28;20658;-78
2021/04/30 12:12:33;;;;;;;0.60;0.60;;;12.70;99.90;;;;;;5072292;28;20207;-78
2021/04/30 12:15:02;;;;;;;0.60;0.60;;;12.80;99.90;;;;;;5072617;28;20227;-78
2021/04/30 12:17:35;;;;;;;0.60;0.60;;;12.30;99.90;;;;;;5073015;28;20242;-83
2021/04/30 12:20:09;;;;;;;0.50;0.50;;;12.00;99.90;;;;;;5073331;28;20554;-81
2021/04/30 12:22:47;;;;;;;0.60;0.60;;;11.70;99.90;;;;;;5073057;28;20257;-77
2021/04/30 12:25:22;;;;;;;0.60;0.60;;;11.40;99.90;;;;;;5073024;28;20739;-78
2021/04/30 12:27:50;;;;;;;0.50;0.50;;;11.30;99.90;;;;;;5072337;28;20280;-78
2021/04/30 12:30:26;;;;;;;0.60;0.60;;;11.20;99.90;;;;;;5072829;28;20719;-78
2021/04/30 12:32:52;;;;;;;0.60;0.60;;;11.00;99.90;;;;;;5072388;28;20200;-78
2021/04/30 12:35:20;;;;;;;0.60;0.60;;;10.90;99.90;;;;;;5072795;28;20210;-78
2021/04/30 12:37:47;;;;;;;0.50;0.50;;;10.80;99.90;;;;;;5072861;28;20207;-78
2021/04/30 12:40:14;;;;;;;0.60;0.60;;;10.80;99.90;;;;;;5072448;28;20265;-78
2021/04/30 12:42:48;;;;;;;0.60;0.60;;;10.70;99.90;;;;;;5071996;28;20207;-78
2021/04/30 12:45:16;;;;;;;0.60;0.60;;;10.60;99.90;;;;;;5072640;28;20262;-80
2021/04/30 12:47:44;;;;;;;0.60;0.60;;;10.70;99.90;;;;;;5072781;28;20207;-78
2021/04/30 12:50:13;;;;;;;0.52;0.52;;;10.30;99.90;;;;;;5072607;28;20199;-78
2021/04/30 12:52:40;;;;;;;0.60;0.60;;;10.80;99.90;;;;;;5072312;28;20203;-82
2021/04/30 12:55:26;;;;;;;0.60;0.60;;;10.80;99.90;;;;;;5072671;28;20318;-81
2021/04/30 12:58:10;;;;;;;0.60;0.60;;;10.70;99.90;;;;;;5072049;28;20204;-80